createdAt,value
2023-05-25T00:02:17.774Z,53.11
2023-05-25T00:07:21.499Z,53.13
2023-05-25T00:12:26.890Z,54.25
2023-05-25T00:17:30.615Z,54.17
2023-05-25T00:22:34.630Z,53.55
2023-05-25T00:27:40.081Z,55.00
2023-05-25T00:32:43.744Z,54.61
2023-05-25T00:37:47.569Z,54.46
2023-05-25T00:42:53.980Z,53.96
2023-05-25T00:47:58.603Z,54.23
2023-05-25T00:53:02.452Z,55.31
2023-05-25T00:58:08.695Z,55.12
2023-05-25T01:03:15.628Z,55.95
2023-05-25T01:08:22.728Z,55.49
2023-05-25T01:13:29.542Z,55.36
2023-05-25T01:18:33.244Z,55.94
2023-05-25T01:23:41.643Z,56.24
2023-05-25T01:28:50.383Z,56.78
2023-05-25T01:33:55.713Z,57.04
2023-05-25T01:39:01.425Z,56.86
2023-05-25T01:44:04.570Z,56.99
2023-05-25T01:49:22.909Z,57.66
2023-05-25T01:54:36.398Z,58.65
2023-05-25T01:59:43.230Z,57.78
2023-05-25T02:04:47.965Z,57.68
2023-05-25T02:09:53.274Z,57.69
2023-05-25T02:14:56.957Z,58.50
2023-05-25T02:20:00.838Z,58.10
2023-05-25T02:25:06.968Z,58.78
2023-05-25T02:30:11.048Z,58.76
2023-05-25T02:35:14.801Z,58.82
2023-05-25T02:40:20.279Z,59.01
2023-05-25T02:45:23.932Z,59.78
2023-05-25T02:50:27.615Z,60.06
2023-05-25T02:55:32.917Z,60.34
2023-05-25T03:00:36.632Z,61.21
2023-05-25T03:05:40.350Z,61.09
2023-05-25T03:10:46.102Z,62.69
2023-05-25T03:15:48.973Z,64.52
2023-05-25T03:20:52.621Z,64.04
2023-05-25T03:25:57.994Z,64.26
2023-05-25T03:31:01.705Z,64.17
2023-05-25T03:36:08.613Z,65.34
2023-05-25T03:41:13.994Z,65.95
2023-05-25T03:46:17.759Z,65.94
2023-05-25T03:51:21.451Z,66.36
2023-05-25T03:56:26.752Z,66.59
2023-05-25T04:01:30.417Z,66.50
2023-05-25T04:06:34.108Z,66.91
2023-05-25T04:11:39.427Z,67.67
2023-05-25T04:16:43.164Z,67.84
2023-05-25T04:21:46.963Z,68.13
2023-05-25T04:26:52.312Z,68.73
2023-05-25T04:31:55.986Z,68.60
2023-05-25T04:36:59.668Z,69.01
2023-05-25T04:42:05.286Z,69.85
2023-05-25T04:47:09.100Z,69.58
2023-05-25T04:52:12.972Z,69.70
2023-05-25T04:57:19.200Z,70.64
2023-05-25T05:02:23.700Z,70.53
2023-05-25T05:07:27.448Z,70.43
2023-05-25T05:12:32.800Z,71.22
2023-05-25T05:17:36.555Z,71.10
2023-05-25T05:22:40.268Z,71.39
2023-05-25T05:27:45.673Z,71.99
2023-05-25T05:32:49.406Z,71.66
2023-05-25T05:37:53.101Z,71.77
2023-05-25T05:42:58.391Z,72.19
2023-05-25T05:48:02.113Z,72.40
2023-05-25T05:53:06.130Z,72.27
2023-05-25T05:58:11.378Z,72.99
2023-05-25T06:03:15.150Z,72.77
2023-05-25T06:08:18.844Z,72.89
2023-05-25T06:13:24.186Z,73.60
2023-05-25T06:18:27.862Z,73.23
2023-05-25T06:23:31.619Z,73.80
2023-05-25T06:28:36.943Z,74.07
2023-05-25T06:33:40.619Z,73.99
2023-05-25T06:38:44.295Z,73.87
2023-05-25T06:43:49.640Z,74.51
2023-05-25T06:48:53.349Z,74.27
2023-05-25T06:53:57.045Z,74.31
2023-05-25T06:59:02.451Z,74.94
2023-05-25T07:04:06.241Z,74.87
2023-05-25T07:09:10.744Z,75.46
2023-05-25T07:14:16.070Z,75.69
2023-05-25T07:19:19.723Z,75.37
2023-05-25T07:24:23.375Z,75.10
2023-05-25T07:29:28.686Z,74.89
2023-05-25T07:34:32.533Z,74.74
2023-05-25T07:39:36.228Z,74.72
2023-05-25T07:44:44.276Z,75.03
2023-05-25T07:49:47.946Z,75.00
2023-05-25T07:54:51.657Z,74.94
2023-05-25T07:59:57.135Z,74.93
2023-05-25T08:05:00.816Z,74.67
2023-05-25T08:10:06.225Z,74.04
2023-05-25T08:15:11.786Z,74.56
2023-05-25T08:20:15.997Z,74.52
2023-05-25T08:25:19.901Z,74.35
2023-05-25T08:30:25.293Z,75.07
2023-05-25T08:35:28.935Z,74.45
2023-05-25T08:40:32.825Z,74.84
2023-05-25T08:45:49.336Z,75.38
2023-05-25T08:50:54.285Z,75.14
2023-05-25T08:55:58.249Z,74.67
2023-05-25T09:01:08.295Z,74.68
2023-05-25T09:06:12.155Z,74.17
2023-05-25T09:11:19.439Z,74.72
2023-05-25T09:16:37.909Z,75.50
2023-05-25T09:21:41.660Z,75.06
2023-05-25T09:26:47.685Z,74.37
2023-05-25T09:31:54.417Z,74.57
2023-05-25T09:36:58.614Z,74.56
2023-05-25T09:42:02.791Z,74.65
2023-05-25T09:47:08.795Z,74.72
2023-05-25T09:52:13.142Z,75.63
2023-05-25T09:57:17.973Z,74.60
2023-05-25T10:02:23.364Z,74.71
2023-05-25T10:07:27.702Z,74.50
2023-05-25T10:12:32.303Z,74.35
2023-05-25T10:17:41.007Z,74.37
2023-05-25T10:22:49.064Z,74.64
2023-05-25T10:27:59.727Z,74.31
2023-05-25T10:33:05.834Z,74.69
2023-05-25T10:38:09.466Z,76.01
2023-05-25T10:43:13.355Z,74.98
2023-05-25T10:48:18.922Z,75.55
2023-05-25T10:53:22.687Z,75.62
2023-05-25T10:58:29.128Z,76.51
2023-05-25T11:03:57.004Z,76.76
2023-05-25T11:09:02.413Z,76.28
2023-05-25T11:14:06.039Z,75.81
2023-05-25T11:19:16.482Z,76.33
2023-05-25T11:24:21.203Z,75.87
2023-05-25T11:29:25.176Z,76.29
2023-05-25T11:34:31.920Z,75.57
2023-05-25T11:39:35.628Z,75.77
2023-05-25T11:44:39.268Z,75.84
2023-05-25T11:49:45.285Z,75.75
2023-05-25T11:54:48.304Z,75.57
2023-05-25T11:59:52.985Z,76.41
2023-05-25T12:05:01.451Z,75.99
2023-05-25T12:10:09.181Z,75.80
2023-05-25T12:15:14.404Z,75.43
2023-05-25T12:20:19.981Z,75.56
2023-05-25T12:25:23.876Z,76.01
2023-05-25T12:30:30.187Z,76.60
2023-05-25T12:35:46.791Z,76.56
2023-05-25T12:41:06.036Z,76.62
2023-05-25T12:46:10.128Z,76.41
2023-05-25T12:51:15.533Z,76.71
2023-05-25T12:56:19.214Z,76.19
2023-05-25T13:01:22.919Z,77.15
2023-05-25T13:06:28.278Z,76.64
2023-05-25T13:11:34.393Z,77.08
2023-05-25T13:16:38.154Z,77.53
2023-05-25T13:21:43.526Z,77.02
2023-05-25T13:26:49.229Z,76.99
2023-05-25T13:31:54.466Z,76.48
2023-05-25T13:36:59.777Z,76.82
2023-05-25T13:42:03.440Z,76.17
2023-05-25T13:47:07.717Z,75.95
2023-05-25T13:52:13.217Z,74.91
2023-05-25T13:57:16.939Z,75.78
2023-05-25T14:02:20.649Z,75.95
2023-05-25T14:07:26.021Z,75.65
2023-05-25T14:12:29.679Z,75.42
2023-05-25T14:17:33.419Z,74.47
2023-05-25T14:22:38.766Z,75.80
2023-05-25T14:27:42.426Z,74.37
2023-05-25T14:32:46.059Z,74.43
2023-05-25T14:37:51.724Z,74.53
2023-05-25T14:42:55.480Z,73.85
2023-05-25T14:48:11.877Z,72.90
2023-05-25T14:53:21.617Z,71.75
2023-05-25T14:58:25.311Z,72.08
2023-05-25T15:03:29.109Z,72.10
2023-05-25T15:08:34.461Z,71.38
2023-05-25T15:13:38.108Z,71.41
2023-05-25T15:18:41.771Z,71.72
2023-05-25T15:23:47.071Z,71.12
2023-05-25T15:28:50.779Z,70.69
2023-05-25T15:33:58.541Z,71.58
2023-05-25T15:39:04.620Z,72.86
2023-05-25T15:44:08.724Z,72.61
2023-05-25T15:49:12.355Z,71.21
2023-05-25T15:54:17.687Z,70.79
2023-05-25T15:59:21.378Z,72.62
2023-05-25T16:04:25.001Z,71.88
2023-05-25T16:09:30.353Z,70.80
2023-05-25T16:14:34.070Z,70.69
2023-05-25T16:19:37.781Z,70.93
2023-05-25T16:24:44.062Z,68.21
2023-05-25T16:29:47.713Z,66.78
2023-05-25T16:34:51.375Z,67.55
2023-05-25T16:39:56.793Z,66.94
2023-05-25T16:45:00.504Z,62.57
2023-05-25T16:50:04.313Z,64.59
2023-05-25T16:55:11.779Z,64.17
2023-05-25T17:00:16.364Z,63.02
2023-05-25T17:05:20.054Z,63.90
2023-05-25T17:10:25.400Z,66.66
2023-05-25T17:15:29.111Z,66.57
2023-05-25T17:20:32.826Z,66.51
2023-05-25T17:25:38.185Z,66.78
2023-05-25T17:30:41.791Z,67.13
2023-05-25T17:35:45.538Z,66.75
2023-05-25T17:40:50.966Z,66.54
2023-05-25T17:45:55.478Z,67.36
2023-05-25T17:50:59.155Z,66.62
2023-05-25T17:56:04.497Z,66.08
2023-05-25T18:01:08.353Z,66.61
2023-05-25T18:06:12.288Z,67.88
2023-05-25T18:11:17.623Z,67.31
2023-05-25T18:16:21.369Z,65.83
2023-05-25T18:21:25.065Z,65.55
2023-05-25T18:26:30.338Z,65.79
2023-05-25T18:31:34.200Z,64.98
2023-05-25T18:36:37.928Z,64.64
2023-05-25T18:41:43.376Z,65.69
2023-05-25T18:46:47.078Z,65.65
2023-05-25T18:51:50.817Z,65.78
2023-05-25T18:56:56.132Z,65.38
2023-05-25T19:01:59.936Z,65.18
2023-05-25T19:07:03.578Z,65.28
2023-05-25T19:12:09.486Z,65.07
2023-05-25T19:17:13.174Z,64.24
2023-05-25T19:22:16.906Z,63.74
2023-05-25T19:27:22.193Z,62.96
2023-05-25T19:32:25.868Z,62.59
2023-05-25T19:37:29.531Z,61.47
2023-05-25T19:42:35.872Z,61.21
2023-05-25T19:47:39.557Z,60.90
2023-05-25T19:52:43.330Z,61.29
2023-05-25T19:57:48.652Z,61.48
2023-05-25T20:02:52.771Z,61.15
2023-05-25T20:07:56.454Z,61.09
2023-05-25T20:13:01.777Z,62.38
2023-05-25T20:18:05.581Z,60.58
2023-05-25T20:23:09.215Z,61.26
2023-05-25T20:28:14.523Z,61.86
2023-05-25T20:33:18.378Z,61.15
2023-05-25T20:38:22.042Z,60.71
2023-05-25T20:43:28.292Z,59.98
2023-05-25T20:48:31.947Z,61.96
2023-05-25T20:53:35.582Z,61.16
2023-05-25T20:58:40.918Z,61.62
2023-05-25T21:03:44.807Z,61.83
2023-05-25T21:08:48.557Z,61.67
2023-05-25T21:13:53.880Z,60.79
2023-05-25T21:18:57.525Z,59.87
2023-05-25T21:24:01.440Z,58.63
2023-05-25T21:29:06.788Z,59.47
2023-05-25T21:34:10.453Z,60.59
2023-05-25T21:39:14.804Z,60.59
2023-05-25T21:44:20.098Z,60.93
2023-05-25T21:49:23.750Z,61.46
2023-05-25T21:54:27.419Z,60.60
2023-05-25T21:59:32.743Z,59.66
2023-05-25T22:04:36.418Z,59.93
2023-05-25T22:09:40.754Z,58.96
2023-05-25T22:14:46.083Z,59.53
2023-05-25T22:20:03.197Z,59.26
2023-05-25T22:25:11.504Z,58.44
2023-05-25T22:30:17.955Z,57.91
2023-05-25T22:35:21.844Z,57.75
2023-05-25T22:40:25.618Z,57.09
2023-05-25T22:45:30.971Z,58.22
2023-05-25T22:50:34.786Z,58.38
2023-05-25T22:55:38.441Z,58.28
2023-05-25T23:00:43.752Z,57.07
2023-05-25T23:05:47.610Z,57.71
2023-05-25T23:10:51.474Z,58.31
2023-05-25T23:15:56.828Z,58.70
2023-05-25T23:21:00.478Z,58.35
2023-05-25T23:26:04.177Z,58.72
2023-05-25T23:31:09.560Z,58.69
2023-05-25T23:36:13.236Z,59.69
2023-05-25T23:41:16.982Z,59.27
2023-05-25T23:46:22.380Z,60.07
2023-05-25T23:51:26.289Z,60.41
2023-05-25T23:56:29.931Z,60.77
